createdAt,value
2018-07-21T00:02:17.224Z,94519.61
2018-07-21T00:04:45.899Z,94521.46
2018-07-21T00:07:14.612Z,94522.45
2018-07-21T00:09:43.341Z,94524.77
2018-07-21T00:12:12.047Z,94520.18
2018-07-21T00:14:40.868Z,94525.17
2018-07-21T00:17:09.526Z,94523.28
2018-07-21T00:19:38.238Z,94522.45
2018-07-21T00:22:06.891Z,94526.41
2018-07-21T00:24:35.607Z,94530.83
2018-07-21T00:27:04.274Z,94531.32
2018-07-21T00:29:33.069Z,94536.61
2018-07-21T00:32:01.775Z,94530.75
2018-07-21T00:34:30.416Z,94526.00
2018-07-21T00:36:59.098Z,94525.46
2018-07-21T00:39:27.832Z,94526.95
2018-07-21T00:41:56.478Z,94529.80
2018-07-21T00:44:25.154Z,94530.58
2018-07-21T00:46:53.820Z,94535.63
2018-07-21T00:49:22.463Z,94533.18
2018-07-21T00:51:51.438Z,94532.06
2018-07-21T00:54:20.075Z,94531.53
2018-07-21T00:56:48.732Z,94529.70
2018-07-21T00:59:17.345Z,94533.33
2018-07-21T01:01:45.999Z,94533.86
2018-07-21T01:04:14.648Z,94528.51
2018-07-21T01:06:43.298Z,94524.70
2018-07-21T01:09:12.020Z,94528.02
2018-07-21T01:11:40.711Z,94527.14
2018-07-21T01:14:09.453Z,94532.66
2018-07-21T01:16:38.196Z,94544.93
2018-07-21T01:19:07.298Z,94539.02
2018-07-21T01:21:36.058Z,94536.77
2018-07-21T01:24:04.765Z,94543.89
2018-07-21T01:26:33.381Z,94539.45
2018-07-21T01:29:02.017Z,94539.98
2018-07-21T01:31:30.663Z,94544.14
2018-07-21T01:33:59.286Z,94542.53
2018-07-21T01:36:27.966Z,94537.66
2018-07-21T01:38:56.618Z,94536.34
2018-07-21T01:41:25.260Z,94540.45
2018-07-21T01:43:53.915Z,94538.38
2018-07-21T01:46:22.551Z,94533.75
2018-07-21T01:48:51.199Z,94529.34
2018-07-21T01:51:19.887Z,94530.92
2018-07-21T01:53:48.550Z,94533.30
2018-07-21T01:56:17.364Z,94532.67
2018-07-21T01:58:46.078Z,94532.96
2018-07-21T02:01:14.798Z,94532.58
2018-07-21T02:03:46.504Z,94531.71
2018-07-21T02:06:15.303Z,94532.05
2018-07-21T02:08:44.314Z,94533.08
2018-07-21T02:11:13.335Z,94534.30
2018-07-21T02:13:42.482Z,94525.64
2018-07-21T02:16:11.166Z,94530.67
2018-07-21T02:18:39.827Z,94528.87
2018-07-21T02:21:08.501Z,94533.56
2018-07-21T02:23:37.256Z,94532.53
2018-07-21T02:26:05.943Z,94534.28
2018-07-21T02:28:34.620Z,94535.31
2018-07-21T02:31:03.328Z,94535.06
2018-07-21T02:33:31.957Z,94532.06
2018-07-21T02:36:00.679Z,94531.44
2018-07-21T02:38:29.400Z,94537.68
2018-07-21T02:40:58.922Z,94538.19
2018-07-21T02:43:27.562Z,94544.59
2018-07-21T02:45:56.400Z,94549.57
2018-07-21T02:48:25.014Z,94549.88
2018-07-21T02:50:53.686Z,94553.77
2018-07-21T02:53:22.332Z,94547.47
2018-07-21T02:55:50.998Z,94541.92
2018-07-21T02:58:19.643Z,94546.17
2018-07-21T03:00:48.446Z,94539.20
2018-07-21T03:03:17.072Z,94545.00
2018-07-21T03:05:45.738Z,94547.49
2018-07-21T03:08:14.477Z,94551.30
2018-07-21T03:10:43.207Z,94549.55
2018-07-21T03:13:11.937Z,94553.30
2018-07-21T03:15:40.687Z,94542.05
2018-07-21T03:18:09.372Z,94547.77
2018-07-21T03:20:38.043Z,94553.31
2018-07-21T03:23:06.837Z,94554.33
2018-07-21T03:25:36.470Z,94553.70
2018-07-21T03:28:05.264Z,94556.98
2018-07-21T03:30:33.992Z,94563.19
2018-07-21T03:33:02.705Z,94557.85
2018-07-21T03:35:31.380Z,94562.94
2018-07-21T03:38:00.128Z,94561.50
2018-07-21T03:40:28.841Z,94553.59
2018-07-21T03:42:57.607Z,94560.95
2018-07-21T03:45:26.523Z,94560.23
2018-07-21T03:47:55.194Z,94557.06
2018-07-21T03:50:23.873Z,94561.09
2018-07-21T03:52:52.548Z,94557.26
2018-07-21T03:55:21.214Z,94558.22
2018-07-21T03:57:49.910Z,94563.78
2018-07-21T04:00:18.611Z,94565.17
2018-07-21T04:02:47.270Z,94566.97
2018-07-21T04:05:15.874Z,94565.61
2018-07-21T04:07:44.517Z,94560.61
2018-07-21T04:10:13.199Z,94571.88
2018-07-21T04:12:41.854Z,94575.66
2018-07-21T04:15:10.652Z,94577.87
2018-07-21T04:17:39.302Z,94573.63
2018-07-21T04:20:07.986Z,94576.70
2018-07-21T04:22:36.714Z,94590.08
2018-07-21T04:25:05.671Z,94590.14
2018-07-21T04:27:34.310Z,94590.21
2018-07-21T04:30:04.344Z,94588.02
2018-07-21T04:32:32.994Z,94582.37
2018-07-21T04:35:01.630Z,94586.98
2018-07-21T04:37:30.350Z,94586.06
2018-07-21T04:39:59.177Z,94576.19
2018-07-21T04:42:27.938Z,94577.87
2018-07-21T04:44:56.649Z,94578.66
2018-07-21T04:47:25.314Z,94579.61
2018-07-21T04:49:54.003Z,94579.28
2018-07-21T04:52:22.650Z,94587.25
2018-07-21T04:54:51.512Z,94582.63
2018-07-21T04:57:20.158Z,94589.07
2018-07-21T04:59:48.813Z,94594.30
2018-07-21T05:02:17.504Z,94593.95
2018-07-21T05:04:46.171Z,94598.62
2018-07-21T05:07:14.854Z,94602.81
2018-07-21T05:09:43.603Z,94599.50
2018-07-21T05:12:12.241Z,94603.58
2018-07-21T05:14:40.941Z,94601.12
2018-07-21T05:17:09.655Z,94597.81
2018-07-21T05:19:38.294Z,94603.31
2018-07-21T05:22:07.326Z,94594.92
2018-07-21T05:24:36.022Z,94597.23
2018-07-21T05:27:04.783Z,94597.58
2018-07-21T05:29:33.424Z,94603.20
2018-07-21T05:32:02.141Z,94604.24
2018-07-21T05:34:30.852Z,94607.78
2018-07-21T05:36:59.546Z,94609.02
2018-07-21T05:39:28.247Z,94611.61
2018-07-21T05:41:56.923Z,94624.14
2018-07-21T05:44:25.608Z,94616.86
2018-07-21T05:46:54.255Z,94608.59
2018-07-21T05:49:23.006Z,94613.77
2018-07-21T05:51:51.668Z,94612.16
2018-07-21T05:54:20.310Z,94608.91
2018-07-21T05:56:49.072Z,94611.93
2018-07-21T05:59:17.730Z,94622.64
2018-07-21T06:01:46.458Z,94618.31
2018-07-21T06:04:15.119Z,94615.09
2018-07-21T06:06:43.826Z,94617.67
2018-07-21T06:09:12.863Z,94620.06
2018-07-21T06:11:41.932Z,94622.63
2018-07-21T06:14:11.079Z,94619.16
2018-07-21T06:16:39.785Z,94624.48
2018-07-21T06:19:08.503Z,94615.49
2018-07-21T06:21:37.199Z,94611.11
2018-07-21T06:24:06.006Z,94615.73
2018-07-21T06:26:34.715Z,94609.23
2018-07-21T06:29:03.435Z,94607.31
2018-07-21T06:31:32.104Z,94606.95
2018-07-21T06:34:00.783Z,94608.85
2018-07-21T06:36:29.419Z,94608.07
2018-07-21T06:38:58.124Z,94600.98
2018-07-21T06:41:26.883Z,94604.13
2018-07-21T06:43:55.595Z,94601.61
2018-07-21T06:46:24.302Z,94602.15
2018-07-21T06:48:52.950Z,94603.22
2018-07-21T06:51:21.645Z,94608.89
2018-07-21T06:53:50.315Z,94610.59
2018-07-21T06:56:18.983Z,94604.80
2018-07-21T06:58:47.672Z,94589.63
2018-07-21T07:01:16.396Z,94597.97
2018-07-21T07:03:45.223Z,94597.20
2018-07-21T07:06:13.875Z,94593.26
2018-07-21T07:08:42.668Z,94601.18
2018-07-21T07:11:11.347Z,94598.30
2018-07-21T07:13:40.037Z,94599.29
2018-07-21T07:16:08.841Z,94592.60
2018-07-21T07:18:37.516Z,94593.44
2018-07-21T07:21:06.211Z,94602.16
2018-07-21T07:23:34.861Z,94595.30
2018-07-21T07:26:04.370Z,94586.96
2018-07-21T07:28:33.047Z,94587.16
2018-07-21T07:31:01.758Z,94583.08
2018-07-21T07:33:30.477Z,94589.94
2018-07-21T07:35:59.199Z,94581.31
2018-07-21T07:38:27.885Z,94595.53
2018-07-21T07:40:56.566Z,94580.20
2018-07-21T07:43:25.226Z,94588.80
2018-07-21T07:45:53.913Z,94584.13
2018-07-21T07:48:22.537Z,94582.70
2018-07-21T07:50:51.182Z,94581.48
2018-07-21T07:53:19.874Z,94582.30
2018-07-21T07:55:55.390Z,94574.92
2018-07-21T07:58:24.111Z,94576.36
2018-07-21T08:00:52.787Z,94571.12
2018-07-21T08:03:21.528Z,94580.20
2018-07-21T08:05:50.143Z,94583.19
2018-07-21T08:08:19.006Z,94581.14
2018-07-21T08:10:47.706Z,94593.06
2018-07-21T08:13:16.362Z,94583.13
2018-07-21T08:15:45.714Z,94583.41
2018-07-21T08:18:17.090Z,94585.70
2018-07-21T08:20:47.337Z,94600.69
2018-07-21T08:23:20.815Z,94599.58
2018-07-21T08:25:52.790Z,94602.94
2018-07-21T08:28:21.649Z,94600.91
2018-07-21T08:30:50.442Z,94619.74
2018-07-21T08:33:19.707Z,94605.38
2018-07-21T08:35:48.351Z,94615.69
2018-07-21T08:38:17.011Z,94606.83
2018-07-21T08:40:45.661Z,94614.05
2018-07-21T08:43:15.179Z,94610.04
2018-07-21T08:45:43.801Z,94606.22
2018-07-21T08:48:12.455Z,94594.80
2018-07-21T08:50:41.109Z,94600.13
2018-07-21T08:53:09.803Z,94603.36
2018-07-21T08:55:42.952Z,94603.36
2018-07-21T08:58:11.660Z,94595.66
2018-07-21T09:00:40.311Z,94591.95
2018-07-21T09:03:08.991Z,94605.52
2018-07-21T09:05:37.776Z,94602.29
2018-07-21T09:08:07.932Z,94603.84
2018-07-21T09:10:36.746Z,94595.90
2018-07-21T09:13:05.480Z,94600.97
2018-07-21T09:15:34.161Z,94591.13
2018-07-21T09:18:02.820Z,94601.77
2018-07-21T09:20:31.511Z,94611.06
2018-07-21T09:23:00.202Z,94608.69
2018-07-21T09:25:28.866Z,94594.34
2018-07-21T09:27:57.540Z,94600.45
2018-07-21T09:30:26.372Z,94601.77
2018-07-21T09:32:55.131Z,94593.55
2018-07-21T09:35:23.892Z,94593.31
2018-07-21T09:37:52.588Z,94594.64
2018-07-21T09:40:21.286Z,94598.36
2018-07-21T09:42:49.979Z,94594.36
2018-07-21T09:45:18.714Z,94599.95
2018-07-21T09:47:47.406Z,94597.53
2018-07-21T09:50:16.068Z,94579.13
2018-07-21T09:52:44.761Z,94595.66
2018-07-21T09:55:13.482Z,94592.71
2018-07-21T09:57:42.278Z,94584.72
2018-07-21T10:00:12.924Z,94583.13
2018-07-21T10:02:41.592Z,94578.88
2018-07-21T10:05:10.258Z,94572.74
2018-07-21T10:07:38.930Z,94580.67
2018-07-21T10:10:07.621Z,94581.98
2018-07-21T10:12:36.386Z,94582.70
2018-07-21T10:15:05.360Z,94578.47
2018-07-21T10:17:34.078Z,94568.80
2018-07-21T10:20:02.778Z,94569.58
2018-07-21T10:22:31.496Z,94570.11
2018-07-21T10:25:05.356Z,94558.94
2018-07-21T10:27:39.284Z,94563.71
2018-07-21T10:30:08.158Z,94563.45
2018-07-21T10:32:36.855Z,94567.43
2018-07-21T10:35:05.591Z,94563.48
2018-07-21T10:37:34.294Z,94577.80
2018-07-21T10:40:02.935Z,94573.14
2018-07-21T10:42:31.671Z,94560.34
2018-07-21T10:45:00.417Z,94568.50
2018-07-21T10:47:29.525Z,94572.91
2018-07-21T10:49:58.212Z,94558.94
2018-07-21T10:52:26.972Z,94558.17
2018-07-21T10:54:55.668Z,94568.83
2018-07-21T10:57:24.393Z,94562.55
2018-07-21T10:59:53.092Z,94569.38
2018-07-21T11:02:21.848Z,94558.13
2018-07-21T11:04:50.525Z,94561.23
2018-07-21T11:07:19.197Z,94563.02
2018-07-21T11:09:47.894Z,94567.34
2018-07-21T11:12:16.616Z,94570.48
2018-07-21T11:14:45.378Z,94557.38
2018-07-21T11:17:14.080Z,94561.12
2018-07-21T11:19:42.793Z,94548.27
2018-07-21T11:22:11.577Z,94550.13
2018-07-21T11:41:32.768Z,94553.89
2018-07-21T11:45:51.328Z,94544.98
2018-07-21T12:15:52.748Z,94535.58
2018-07-21T12:22:00.551Z,94523.20
2018-07-21T12:24:29.243Z,94525.57
2018-07-21T12:29:55.664Z,94518.77
2018-07-21T12:32:24.406Z,94512.34
2018-07-21T12:34:53.170Z,94519.77
2018-07-21T12:37:21.876Z,94522.57
2018-07-21T12:39:50.623Z,94511.77
2018-07-21T12:42:19.331Z,94508.62
2018-07-21T12:44:48.095Z,94510.17
2018-07-21T12:47:16.876Z,94504.09
2018-07-21T12:49:45.577Z,94497.20
2018-07-21T12:52:14.374Z,94496.70
2018-07-21T12:54:43.022Z,94511.17
2018-07-21T12:57:11.774Z,94509.72
2018-07-21T12:59:40.463Z,94514.56
2018-07-21T13:02:09.189Z,94510.04
2018-07-21T13:04:37.885Z,94514.02
2018-07-21T13:07:06.589Z,94504.78
2018-07-21T13:09:35.333Z,94500.91
2018-07-21T13:12:04.040Z,94507.09
2018-07-21T13:14:32.742Z,94505.87
2018-07-21T13:17:01.483Z,94500.24
2018-07-21T13:19:30.214Z,94488.53
2018-07-21T13:21:58.994Z,94492.98
2018-07-21T13:24:27.736Z,94486.59
2018-07-21T13:26:56.456Z,94496.10
2018-07-21T13:29:25.183Z,94493.66
2018-07-21T13:31:53.920Z,94494.02
2018-07-21T13:34:22.651Z,94481.77
2018-07-21T13:36:51.386Z,94471.91
2018-07-21T13:39:20.079Z,94479.11
2018-07-21T13:41:48.916Z,94464.25
2018-07-21T13:44:17.683Z,94469.88
2018-07-21T14:20:06.030Z,94480.83
2018-07-21T14:22:55.818Z,94471.30
2018-07-21T14:25:24.512Z,94475.20
2018-07-21T14:27:53.182Z,94476.42
2018-07-21T14:30:21.886Z,94484.75
2018-07-21T14:32:50.535Z,94491.64
2018-07-21T14:35:19.326Z,94476.76
2018-07-21T14:37:48.041Z,94480.24
2018-07-21T14:40:16.843Z,94472.75
2018-07-21T14:42:45.556Z,94488.11
2018-07-21T14:45:14.267Z,94488.58
2018-07-21T14:47:42.938Z,94484.22
2018-07-21T14:50:11.738Z,94477.84
2018-07-21T14:52:40.472Z,94484.37
2018-07-21T14:55:09.159Z,94475.95
2018-07-21T14:57:37.854Z,94475.40
2018-07-21T15:00:08.226Z,94478.47
2018-07-21T15:02:36.880Z,94465.87
2018-07-21T15:05:05.583Z,94464.05
2018-07-21T15:07:34.639Z,94470.27
2018-07-21T15:10:03.464Z,94463.61
2018-07-21T15:12:32.492Z,94470.82
2018-07-21T15:15:01.803Z,94466.52
2018-07-21T15:17:30.653Z,94464.52
2018-07-21T15:19:59.360Z,94455.94
2018-07-21T15:22:28.098Z,94453.94
2018-07-21T15:24:56.810Z,94465.97
2018-07-21T15:27:25.474Z,94465.38
2018-07-21T15:29:54.141Z,94462.34
2018-07-21T15:32:22.924Z,94477.00
2018-07-21T15:34:51.726Z,94474.40
2018-07-21T15:37:20.399Z,94470.48
2018-07-21T15:39:49.106Z,94461.73
2018-07-21T15:42:17.726Z,94467.64
2018-07-21T15:44:46.462Z,94469.22
2018-07-21T15:47:15.114Z,94465.86
2018-07-21T15:49:43.787Z,94460.87
2018-07-21T15:52:12.488Z,94464.06
2018-07-21T15:54:41.213Z,94457.59
2018-07-21T15:57:09.914Z,94460.06
2018-07-21T15:59:38.748Z,94456.99
2018-07-21T16:02:07.517Z,94462.19
2018-07-21T16:04:36.279Z,94459.84
2018-07-21T16:07:05.043Z,94460.59
2018-07-21T16:09:33.737Z,94456.68
2018-07-21T16:12:02.749Z,94460.93
2018-07-21T16:14:31.458Z,94467.39
2018-07-21T16:17:00.234Z,94460.81
2018-07-21T16:19:28.910Z,94460.46
2018-07-21T16:21:57.674Z,94463.83
2018-07-21T16:24:26.388Z,94456.17
2018-07-21T16:26:55.158Z,94462.16
2018-07-21T16:29:23.950Z,94460.19
2018-07-21T16:31:52.595Z,94463.21
2018-07-21T16:34:21.282Z,94468.31
2018-07-21T16:36:49.996Z,94471.44
2018-07-21T16:39:18.811Z,94477.52
2018-07-21T16:41:47.547Z,94469.05
2018-07-21T16:44:16.254Z,94468.84
2018-07-21T16:46:44.985Z,94471.54
2018-07-21T16:49:13.702Z,94481.11
2018-07-21T16:51:42.396Z,94475.61
2018-07-21T16:54:11.118Z,94477.08
2018-07-21T16:56:39.916Z,94478.78
2018-07-21T16:59:08.644Z,94480.34
2018-07-21T17:01:37.298Z,94479.21
2018-07-21T17:04:06.996Z,94472.97
2018-07-21T17:06:39.050Z,94478.92
2018-07-21T17:09:17.163Z,94469.94
2018-07-21T17:11:46.502Z,94477.67
2018-07-21T17:14:15.186Z,94472.34
2018-07-21T17:16:45.612Z,94484.45
2018-07-21T17:19:14.327Z,94478.59
2018-07-21T17:21:43.014Z,94482.02
2018-07-21T17:24:11.676Z,94485.92
2018-07-21T17:26:40.392Z,94485.27
2018-07-21T17:29:10.872Z,94484.86
2018-07-21T17:31:40.115Z,94483.73
2018-07-21T17:34:08.873Z,94481.84
2018-07-21T17:36:37.592Z,94486.52
2018-07-21T17:39:08.527Z,94491.37
2018-07-21T17:41:37.223Z,94489.90
2018-07-21T17:44:07.108Z,94484.70
2018-07-21T17:46:37.920Z,94482.94
2018-07-21T17:49:10.446Z,94486.08
2018-07-21T17:51:40.351Z,94486.29
2018-07-21T17:54:09.146Z,94490.44
2018-07-21T17:56:40.172Z,94491.75
2018-07-21T17:59:08.970Z,94494.18
2018-07-21T18:01:39.477Z,94493.97
2018-07-21T18:04:10.953Z,94495.37
2018-07-21T18:06:39.691Z,94485.48
2018-07-21T18:09:09.686Z,94487.43
2018-07-21T18:11:38.464Z,94486.12
2018-07-21T18:14:07.218Z,94488.77
2018-07-21T18:16:35.947Z,94495.36
2018-07-21T18:19:04.754Z,94500.75
2018-07-21T18:21:33.468Z,94496.55
2018-07-21T18:24:02.200Z,94500.01
2018-07-21T18:26:30.911Z,94499.34
2018-07-21T18:28:59.561Z,94496.95
2018-07-21T18:31:28.413Z,94497.27
2018-07-21T18:33:57.052Z,94495.91
2018-07-21T18:36:25.828Z,94495.94
2018-07-21T18:38:54.569Z,94500.23
2018-07-21T18:41:26.158Z,94497.03
2018-07-21T18:43:56.211Z,94505.89
2018-07-21T18:46:27.129Z,94503.56
2018-07-21T18:48:56.785Z,94502.02
2018-07-21T18:51:27.041Z,94506.54
2018-07-21T18:53:56.543Z,94506.02
2018-07-21T18:56:26.363Z,94502.55
2018-07-21T18:58:56.293Z,94510.56
2018-07-21T19:01:25.928Z,94507.09
2018-07-21T19:03:55.258Z,94511.61
2018-07-21T19:06:24.095Z,94507.61
2018-07-21T19:08:59.036Z,94510.83
2018-07-21T19:11:28.769Z,94519.32
2018-07-21T19:13:58.742Z,94511.61
2018-07-21T19:16:32.767Z,94511.61
2018-07-21T19:19:01.585Z,94508.41
2018-07-21T19:21:30.358Z,94505.23
2018-07-21T19:23:59.067Z,94504.18
2018-07-21T19:26:33.014Z,94507.90
2018-07-21T19:29:01.665Z,94511.34
2018-07-21T19:31:30.436Z,94513.73
2018-07-21T19:33:59.118Z,94508.95
2018-07-21T19:36:27.794Z,94507.11
2018-07-21T19:38:56.539Z,94510.83
2018-07-21T19:41:30.250Z,94510.02
2018-07-21T19:43:58.990Z,94512.40
2018-07-21T19:46:27.740Z,94507.90
2018-07-21T19:48:56.410Z,94499.92
2018-07-21T19:51:25.103Z,94503.13
2018-07-21T19:53:53.772Z,94504.69
2018-07-21T19:56:23.299Z,94502.58
2018-07-21T19:58:52.150Z,94499.38
2018-07-21T20:01:21.164Z,94506.57
2018-07-21T20:03:49.877Z,94514.00
2018-07-21T20:06:18.554Z,94511.06
2018-07-21T20:08:47.239Z,94519.30
2018-07-21T20:11:15.913Z,94516.32
2018-07-21T20:13:44.623Z,94517.62
2018-07-21T20:16:13.273Z,94515.20
2018-07-21T20:18:42.157Z,94515.97
2018-07-21T20:21:10.925Z,94520.45
2018-07-21T20:23:39.589Z,94524.42
2018-07-21T20:26:08.267Z,94522.84
2018-07-21T20:28:37.339Z,94520.97
2018-07-21T20:31:06.018Z,94523.89
2018-07-21T20:33:34.674Z,94520.39
2018-07-21T20:36:03.397Z,94517.69
2018-07-21T20:38:32.089Z,94508.61
2018-07-21T20:41:00.902Z,94508.81
2018-07-21T20:43:29.616Z,94502.11
2018-07-21T20:45:58.271Z,94500.98
2018-07-21T20:48:27.056Z,94499.91
2018-07-21T20:50:56.347Z,94497.20
2018-07-21T20:53:25.022Z,94504.33
2018-07-21T20:55:53.750Z,94502.66
2018-07-21T20:58:22.434Z,94504.53
2018-07-21T21:00:51.299Z,94500.77
2018-07-21T21:03:20.012Z,94504.79
2018-07-21T21:05:48.689Z,94496.57
2018-07-21T21:08:17.415Z,94502.92
2018-07-21T21:10:46.105Z,94497.52
2018-07-21T21:13:14.862Z,94504.13
2018-07-21T21:15:43.595Z,94511.25
2018-07-21T21:18:12.295Z,94511.72
2018-07-21T21:20:40.964Z,94505.85
2018-07-21T21:23:09.709Z,94509.31
2018-07-21T21:25:38.414Z,94516.64
2018-07-21T21:28:07.299Z,94510.48
2018-07-21T21:30:36.002Z,94513.13
2018-07-21T21:33:04.674Z,94512.25
2018-07-21T21:35:33.378Z,94507.47
2018-07-21T21:38:02.062Z,94511.97
2018-07-21T21:40:30.742Z,94511.16
2018-07-21T21:42:59.461Z,94511.67
2018-07-21T21:45:28.142Z,94515.88
2018-07-21T21:47:56.839Z,94513.76
2018-07-21T21:50:25.626Z,94506.53
2018-07-21T21:52:54.345Z,94511.30
2018-07-21T21:55:23.015Z,94515.19
2018-07-21T21:57:52.142Z,94507.05
2018-07-21T22:00:21.046Z,94513.98
2018-07-21T22:02:49.684Z,94509.47
2018-07-21T22:07:45.986Z,94509.36
2018-07-21T22:10:14.735Z,94506.91
2018-07-21T22:12:43.586Z,94503.90
2018-07-21T22:15:16.389Z,94505.41
2018-07-21T22:17:45.116Z,94504.34
2018-07-21T22:20:13.807Z,94503.59
2018-07-21T22:22:42.498Z,94504.34
2018-07-21T22:25:11.134Z,94509.92
2018-07-21T22:27:39.881Z,94511.09
2018-07-21T22:30:08.662Z,94508.70
2018-07-21T22:32:37.275Z,94499.59
2018-07-21T22:35:06.067Z,94503.88
2018-07-21T22:37:34.740Z,94495.53
2018-07-21T22:40:03.422Z,94495.78
2018-07-21T22:42:32.084Z,94500.13
2018-07-21T22:45:00.779Z,94496.69
2018-07-21T22:47:29.439Z,94502.41
2018-07-21T22:49:58.142Z,94502.28
2018-07-21T22:52:26.898Z,94501.17
2018-07-21T22:54:55.595Z,94498.55
2018-07-21T22:57:24.234Z,94502.20
2018-07-21T22:59:53.005Z,94498.91
2018-07-21T23:02:21.659Z,94499.91
2018-07-21T23:04:50.354Z,94501.76
2018-07-21T23:07:19.037Z,94497.43
2018-07-21T23:09:47.702Z,94490.70
2018-07-21T23:12:16.354Z,94501.81
2018-07-21T23:14:45.075Z,94502.88
2018-07-21T23:17:13.738Z,94498.09
2018-07-21T23:19:42.402Z,94486.58
2018-07-21T23:22:11.041Z,94482.34
2018-07-21T23:24:39.742Z,94483.34
2018-07-21T23:27:08.413Z,94474.38
2018-07-21T23:29:37.077Z,94478.72
2018-07-21T23:32:05.871Z,94479.73
2018-07-21T23:34:34.588Z,94486.05
2018-07-21T23:37:03.281Z,94473.02
2018-07-21T23:39:31.902Z,94475.61
2018-07-21T23:42:00.640Z,94475.61
2018-07-21T23:44:29.360Z,94476.98
2018-07-21T23:46:58.094Z,94473.55
2018-07-21T23:49:26.739Z,94480.72
2018-07-21T23:51:55.520Z,94476.72
2018-07-21T23:54:24.359Z,94484.39
2018-07-21T23:56:53.070Z,94484.94
2018-07-21T23:59:21.985Z,94484.16
